Time;durP1;ratioP1;P1;durP2;ratioP2;P2;SDS_P1;SDS_P2;PMS_P1;PMS_P2;Temp;Humidity;BMP_temperature;BMP_pressure;BME280_temperature;BME280_humidity;BME280_pressure;Samples;Min_cycle;Max_cycle;Signal;HPM_P1;HPM_P2
2022/01/14 00:02:05;;;;;;;70.57;36.10;;;;;;;;;;4886128;29;20290;-96
2022/01/14 00:04:31;;;;;;;73.97;36.00;;;;;;;;;;4886438;29;20428;-96
2022/01/14 00:07:00;;;;;;;67.88;36.08;;;;;;;;;;4886325;29;20328;-96
2022/01/14 00:09:26;;;;;;;68.60;35.97;;;;;;;;;;4885805;29;20025;-96
2022/01/14 00:11:56;;;;;;;74.70;36.67;;;;;;;;;;4917377;29;20101;-95
2022/01/14 00:19:54;;;;;;;68.35;34.80;;;;;;;;;;4923810;29;20074;-96
2022/01/14 00:22:22;;;;;;;66.60;34.97;;;;;;;;;;4922232;29;20028;-96
2022/01/14 00:33:22;;;;;;;70.20;35.22;;;;;;;;;;4935242;23;20063;-95
2022/01/14 00:35:48;;;;;;;68.35;35.90;;;;;;;;;;4908273;29;20032;-96
2022/01/14 00:38:16;;;;;;;65.97;35.00;;;;;;;;;;4892521;29;20119;-96
2022/01/14 00:40:42;;;;;;;64.75;35.15;;;;;;;;;;4910250;29;20029;-96
2022/01/14 00:43:10;;;;;;;73.03;36.50;;;;;;;;;;4909895;29;20404;-96
2022/01/14 00:45:36;;;;;;;73.18;38.20;;;;;;;;;;4888719;29;20119;-96
2022/01/14 00:48:03;;;;;;;80.10;40.58;;;;;;;;;;4900664;29;20032;-95
2022/01/14 00:50:29;;;;;;;85.20;42.83;;;;;;;;;;4906516;29;20031;-95
2022/01/14 00:52:55;;;;;;;85.88;43.58;;;;;;;;;;4906200;29;20396;-96
2022/01/14 00:55:29;;;;;;;74.85;40.65;;;;;;;;;;4926632;29;20111;-96
2022/01/14 01:00:41;;;;;;;69.07;35.55;;;;;;;;;;4910858;29;20051;-95
2022/01/14 01:03:07;;;;;;;68.85;33.78;;;;;;;;;;4888015;29;20044;-95
2022/01/14 01:05:33;;;;;;;70.10;33.13;;;;;;;;;;4902269;29;20076;-95
2022/01/14 11:30:45;;;;;;;32.92;18.58;;;;;;;;;;4967041;29;19985;-96
2022/01/14 12:04:06;;;;;;;40.80;23.23;;;;;;;;;;4921240;29;20060;-95
2022/01/14 12:06:51;;;;;;;38.47;21.45;;;;;;;;;;4908740;29;20024;-92
2022/01/14 12:09:21;;;;;;;41.40;21.38;;;;;;;;;;4887444;29;20024;-93
2022/01/14 12:12:17;;;;;;;41.60;22.02;;;;;;;;;;4903941;29;20028;-90
2022/01/14 12:14:55;;;;;;;30.85;19.13;;;;;;;;;;4792030;29;20044;-91
2022/01/14 12:17:31;;;;;;;32.05;18.10;;;;;;;;;;4791741;30;20059;-91
2022/01/14 12:19:57;;;;;;;32.28;18.67;;;;;;;;;;4791955;29;20160;-91
2022/01/14 12:22:23;;;;;;;35.25;20.52;;;;;;;;;;4791886;30;20110;-92
2022/01/14 12:24:51;;;;;;;37.97;19.80;;;;;;;;;;4791758;29;20044;-91
2022/01/14 12:27:18;;;;;;;32.60;19.23;;;;;;;;;;4791637;29;20031;-91
2022/01/14 12:29:46;;;;;;;36.95;18.48;;;;;;;;;;4776691;30;20031;-91
2022/01/14 12:32:18;;;;;;;36.88;20.08;;;;;;;;;;4791563;29;20084;-91
2022/01/14 12:34:44;;;;;;;44.47;25.17;;;;;;;;;;4791691;30;20054;-91
2022/01/14 12:37:15;;;;;;;61.55;32.65;;;;;;;;;;4791314;29;20464;-91
2022/01/14 12:39:42;;;;;;;42.55;22.27;;;;;;;;;;4776663;30;20066;-91
2022/01/14 12:42:09;;;;;;;80.90;39.30;;;;;;;;;;4791581;30;20067;-90
2022/01/14 12:44:43;;;;;;;36.75;20.23;;;;;;;;;;4791545;30;20044;-89
2022/01/14 12:47:10;;;;;;;42.05;21.83;;;;;;;;;;4775976;30;20059;-91
2022/01/14 12:49:37;;;;;;;354.20;150.10;;;;;;;;;;4791273;29;20400;-90
2022/01/14 12:52:03;;;;;;;101.35;49.03;;;;;;;;;;4876644;29;20061;-92
2022/01/14 12:54:36;;;;;;;86.60;40.08;;;;;;;;;;4902718;29;20049;-91
2022/01/14 12:57:02;;;;;;;108.32;50.13;;;;;;;;;;4903082;29;20051;-90
2022/01/14 12:59:37;;;;;;;43.80;22.60;;;;;;;;;;4903453;29;20055;-91
2022/01/14 13:02:05;;;;;;;130.60;61.63;;;;;;;;;;4885572;29;20444;-91
2022/01/14 13:04:31;;;;;;;66.57;33.22;;;;;;;;;;4886652;29;20039;-90
2022/01/14 13:06:58;;;;;;;37.95;21.13;;;;;;;;;;4886083;29;20442;-90
2022/01/14 13:09:28;;;;;;;34.17;20.13;;;;;;;;;;4886126;29;20025;-90
2022/01/14 13:11:59;;;;;;;38.08;20.83;;;;;;;;;;4902757;29;20038;-91
2022/01/14 13:14:30;;;;;;;327.95;153.95;;;;;;;;;;4886235;29;20069;-90
2022/01/14 13:17:00;;;;;;;48.13;27.60;;;;;;;;;;4902627;29;20336;-89
2022/01/14 13:19:28;;;;;;;61.17;32.15;;;;;;;;;;4902626;29;20033;-89
2022/01/14 13:21:54;;;;;;;34.72;19.75;;;;;;;;;;4902796;29;20044;-89
2022/01/14 13:24:20;;;;;;;394.52;172.35;;;;;;;;;;4902731;29;20035;-89
2022/01/14 13:26:57;;;;;;;38.65;21.95;;;;;;;;;;4902467;29;20443;-90
2022/01/14 13:29:23;;;;;;;168.70;64.88;;;;;;;;;;4885953;29;20034;-90
2022/01/14 13:31:49;;;;;;;188.70;67.80;;;;;;;;;;4902143;29;20037;-89
2022/01/14 13:34:15;;;;;;;42.20;22.45;;;;;;;;;;4885994;29;20058;-90
2022/01/14 13:36:41;;;;;;;275.13;98.88;;;;;;;;;;4893605;29;20119;-90
2022/01/14 13:39:09;;;;;;;60.35;26.83;;;;;;;;;;4902183;29;20475;-90
2022/01/14 13:41:35;;;;;;;81.13;36.92;;;;;;;;;;4885834;29;20446;-90
2022/01/14 13:44:16;;;;;;;73.72;36.53;;;;;;;;;;4902333;29;20312;-90
2022/01/14 13:46:51;;;;;;;49.70;23.17;;;;;;;;;;4902004;29;20025;-89
2022/01/14 13:49:21;;;;;;;106.22;43.13;;;;;;;;;;4885863;29;20033;-90
2022/01/14 13:51:59;;;;;;;169.15;66.85;;;;;;;;;;4902491;29;20033;-90
2022/01/14 13:54:25;;;;;;;309.13;114.97;;;;;;;;;;4902289;29;20061;-90
2022/01/14 13:56:51;;;;;;;35.83;20.98;;;;;;;;;;4885479;29;20041;-90
2022/01/14 13:59:21;;;;;;;63.78;31.30;;;;;;;;;;4901951;29;20033;-90
2022/01/14 14:01:53;;;;;;;37.85;21.58;;;;;;;;;;4902055;29;20419;-93
2022/01/14 14:04:26;;;;;;;126.07;51.25;;;;;;;;;;4902779;29;20033;-94
2022/01/14 14:07:03;;;;;;;42.22;24.83;;;;;;;;;;4902340;29;20036;-91
2022/01/14 14:09:37;;;;;;;36.80;21.95;;;;;;;;;;4902004;29;20116;-91
2022/01/14 14:12:36;;;;;;;39.40;21.85;;;;;;;;;;4902352;29;20412;-91
2022/01/14 14:17:43;;;;;;;45.65;22.60;;;;;;;;;;4906043;29;20047;-90
2022/01/14 14:20:09;;;;;;;60.42;29.52;;;;;;;;;;4889074;29;20139;-91
2022/01/14 14:22:39;;;;;;;62.45;30.55;;;;;;;;;;4905774;29;20028;-91
2022/01/14 14:25:10;;;;;;;195.45;77.30;;;;;;;;;;4889246;29;20028;-90
2022/01/14 14:27:37;;;;;;;192.20;75.43;;;;;;;;;;4888597;29;20070;-91
2022/01/14 14:30:10;;;;;;;145.18;65.75;;;;;;;;;;4905593;29;20029;-90
2022/01/14 14:32:37;;;;;;;;;;;;;;;;;;4889448;29;20040;-91
2022/01/14 14:35:10;;;;;;;47.08;25.30;;;;;;;;;;4888413;29;20299;-92
2022/01/14 14:37:37;;;;;;;43.25;24.55;;;;;;;;;;4905689;29;20029;-91
2022/01/14 14:40:05;;;;;;;41.63;24.10;;;;;;;;;;4888599;29;20031;-90
2022/01/14 14:42:31;;;;;;;58.65;29.88;;;;;;;;;;4905770;29;20051;-90
2022/01/14 14:44:58;;;;;;;37.08;21.42;;;;;;;;;;4888819;29;20032;-91
2022/01/14 14:47:24;;;;;;;41.47;22.52;;;;;;;;;;4888612;29;20036;-90
2022/01/14 14:49:50;;;;;;;39.70;23.67;;;;;;;;;;4904903;29;20025;-90
2022/01/14 14:52:19;;;;;;;142.65;59.35;;;;;;;;;;4888799;29;20067;-93
2022/01/14 14:54:45;;;;;;;39.38;22.75;;;;;;;;;;4888234;29;20067;-91
2022/01/14 14:57:11;;;;;;;43.22;23.92;;;;;;;;;;4905093;29;20032;-91
2022/01/14 14:59:38;;;;;;;57.88;32.42;;;;;;;;;;4888372;29;20080;-91
2022/01/14 15:02:06;;;;;;;71.10;38.17;;;;;;;;;;4905111;29;20045;-91
2022/01/14 15:04:34;;;;;;;129.40;57.20;;;;;;;;;;4905119;29;20024;-92
2022/01/14 15:07:00;;;;;;;80.20;42.47;;;;;;;;;;4904727;29;20033;-92
2022/01/14 15:09:27;;;;;;;101.22;45.72;;;;;;;;;;4888244;29;20116;-91
2022/01/14 15:11:53;;;;;;;81.55;40.67;;;;;;;;;;4904714;29;20024;-91
2022/01/14 15:14:19;;;;;;;88.70;44.10;;;;;;;;;;4904831;29;20361;-91
2022/01/14 15:19:30;;;;;;;118.05;56.53;;;;;;;;;;4905047;29;20037;-92
2022/01/14 15:21:56;;;;;;;77.57;42.85;;;;;;;;;;4904715;29;20028;-92
2022/01/14 15:24:22;;;;;;;453.27;198.15;;;;;;;;;;4903904;29;20060;-94
2022/01/14 15:26:48;;;;;;;108.32;50.90;;;;;;;;;;4896106;29;20032;-92
2022/01/14 15:29:14;;;;;;;98.72;49.53;;;;;;;;;;4923417;29;20035;-90
2022/01/14 15:31:40;;;;;;;82.47;43.45;;;;;;;;;;4923326;29;20028;-92
2022/01/14 15:34:07;;;;;;;70.10;33.33;;;;;;;;;;4905853;29;20032;-91
2022/01/14 15:36:33;;;;;;;109.38;57.08;;;;;;;;;;4906643;29;20072;-92
2022/01/14 15:38:59;;;;;;;178.40;97.65;;;;;;;;;;4906318;29;20056;-91
2022/01/14 15:41:28;;;;;;;198.93;106.07;;;;;;;;;;4906119;29;20033;-92
2022/01/14 15:43:58;;;;;;;139.65;79.47;;;;;;;;;;4906323;29;20036;-91
2022/01/14 15:46:24;;;;;;;95.93;52.53;;;;;;;;;;4923044;29;20403;-91
2022/01/14 15:48:51;;;;;;;92.90;51.17;;;;;;;;;;4923125;29;20032;-90
2022/01/14 15:51:17;;;;;;;89.00;52.28;;;;;;;;;;4923036;29;20390;-92
2022/01/14 15:53:43;;;;;;;78.88;45.90;;;;;;;;;;4923098;29;20024;-92
2022/01/14 15:56:09;;;;;;;66.32;36.50;;;;;;;;;;4922920;29;20024;-94
2022/01/14 15:58:35;;;;;;;62.35;34.38;;;;;;;;;;4923420;29;20123;-93
2022/01/14 16:01:02;;;;;;;56.05;31.85;;;;;;;;;;4906180;29;20068;-90
2022/01/14 16:03:28;;;;;;;84.07;41.75;;;;;;;;;;4905948;29;20044;-88
2022/01/14 16:05:54;;;;;;;94.90;43.63;;;;;;;;;;4906307;29;20032;-89
2022/01/14 16:08:20;;;;;;;123.80;53.50;;;;;;;;;;4922426;29;20111;-88
2022/01/14 16:10:47;;;;;;;91.47;46.33;;;;;;;;;;4922719;29;20024;-89
2022/01/14 16:13:15;;;;;;;84.50;42.70;;;;;;;;;;4905926;29;20116;-90
2022/01/14 16:15:41;;;;;;;80.88;43.00;;;;;;;;;;4922220;29;20398;-89
2022/01/14 16:18:07;;;;;;;82.93;43.13;;;;;;;;;;4922452;29;20028;-89
2022/01/14 16:20:33;;;;;;;83.57;46.40;;;;;;;;;;4922255;29;20032;-90
2022/01/14 16:23:00;;;;;;;114.00;60.08;;;;;;;;;;4922773;29;20028;-89
2022/01/14 16:25:28;;;;;;;185.98;78.82;;;;;;;;;;4922698;29;20043;-89
2022/01/14 16:27:54;;;;;;;101.13;50.35;;;;;;;;;;4918426;29;20028;-89
2022/01/14 16:30:20;;;;;;;69.57;36.72;;;;;;;;;;4902681;29;20208;-91
2022/01/14 16:32:47;;;;;;;61.75;32.83;;;;;;;;;;4911489;29;20037;-92
2022/01/14 16:35:13;;;;;;;56.13;31.17;;;;;;;;;;4918942;29;20111;-91
2022/01/14 16:37:39;;;;;;;56.95;31.70;;;;;;;;;;4905162;29;20040;-91
2022/01/14 16:40:07;;;;;;;82.63;40.00;;;;;;;;;;4921864;29;20036;-92
2022/01/14 16:42:35;;;;;;;56.88;27.83;;;;;;;;;;4921826;29;20029;-92
2022/01/14 16:45:01;;;;;;;47.03;25.73;;;;;;;;;;4905701;29;20427;-91
2022/01/14 16:47:27;;;;;;;51.22;26.98;;;;;;;;;;4922238;29;20047;-91
2022/01/14 16:49:54;;;;;;;59.75;33.10;;;;;;;;;;4922427;29;20138;-92
2022/01/14 16:55:23;;;;;;;79.35;40.25;;;;;;;;;;4917028;29;20042;-92
2022/01/14 16:57:50;;;;;;;82.22;43.97;;;;;;;;;;4905157;29;20024;-92
2022/01/14 17:00:18;;;;;;;86.85;46.50;;;;;;;;;;4928561;29;20036;-92
2022/01/14 17:02:44;;;;;;;81.32;40.90;;;;;;;;;;4921329;29;20048;-91
2022/01/14 17:05:11;;;;;;;70.85;36.70;;;;;;;;;;4920953;29;20039;-91
2022/01/14 17:07:38;;;;;;;104.72;50.08;;;;;;;;;;4921834;29;20404;-93
2022/01/14 17:10:04;;;;;;;86.75;40.97;;;;;;;;;;4905030;29;20036;-91
2022/01/14 17:12:31;;;;;;;122.10;54.17;;;;;;;;;;4905249;29;20041;-92
2022/01/14 17:14:57;;;;;;;77.03;37.95;;;;;;;;;;4895138;29;20040;-91
2022/01/14 17:17:23;;;;;;;77.10;36.65;;;;;;;;;;4902750;29;20029;-92
2022/01/14 17:19:50;;;;;;;72.63;38.47;;;;;;;;;;4886146;29;20173;-90
2022/01/14 17:22:16;;;;;;;90.38;43.75;;;;;;;;;;4903084;29;20081;-89
2022/01/14 17:27:45;;;;;;;106.00;48.70;;;;;;;;;;4902573;29;20486;-92
2022/01/14 17:30:12;;;;;;;296.55;118.30;;;;;;;;;;4904932;29;20032;-92
2022/01/14 17:32:38;;;;;;;124.90;57.15;;;;;;;;;;4921919;29;20061;-90
2022/01/14 17:35:04;;;;;;;179.63;79.65;;;;;;;;;;4919860;29;20031;-90
2022/01/14 17:37:31;;;;;;;100.45;53.47;;;;;;;;;;4922462;29;20024;-88
2022/01/14 17:39:57;;;;;;;74.53;39.17;;;;;;;;;;4904554;29;20036;-90
2022/01/14 17:42:24;;;;;;;88.05;44.25;;;;;;;;;;4921254;29;20028;-91
2022/01/14 17:44:51;;;;;;;116.93;54.00;;;;;;;;;;4921575;29;20047;-90
2022/01/14 17:47:17;;;;;;;148.60;70.00;;;;;;;;;;4921856;29;20429;-90
2022/01/14 17:49:43;;;;;;;124.75;59.95;;;;;;;;;;4925309;29;20031;-92
2022/01/14 17:52:09;;;;;;;97.40;49.67;;;;;;;;;;4925292;29;20024;-92
2022/01/14 17:54:35;;;;;;;69.88;39.40;;;;;;;;;;4908302;29;20489;-92
2022/01/14 17:57:03;;;;;;;70.22;36.05;;;;;;;;;;4908269;29;20036;-93
2022/01/14 17:59:29;;;;;;;83.45;42.10;;;;;;;;;;4924846;29;20032;-91
2022/01/14 18:01:55;;;;;;;87.25;45.03;;;;;;;;;;4908006;29;20048;-92
2022/01/14 18:04:21;;;;;;;59.58;31.35;;;;;;;;;;4924986;29;20032;-92
2022/01/14 18:06:49;;;;;;;47.92;25.23;;;;;;;;;;4908433;29;20048;-91
2022/01/14 18:09:15;;;;;;;62.95;29.58;;;;;;;;;;4908721;29;20059;-93
2022/01/14 18:11:43;;;;;;;50.17;26.73;;;;;;;;;;4925144;29;20031;-93
2022/01/14 18:14:21;;;;;;;175.00;74.18;;;;;;;;;;4924781;29;20036;-91
2022/01/14 18:16:49;;;;;;;44.17;24.55;;;;;;;;;;4924598;29;20412;-91
2022/01/14 18:19:15;;;;;;;53.85;28.33;;;;;;;;;;4907876;29;20054;-93
2022/01/14 18:21:42;;;;;;;73.47;34.33;;;;;;;;;;4924559;29;20028;-91
2022/01/14 18:24:08;;;;;;;54.47;27.48;;;;;;;;;;4907894;29;20066;-91
2022/01/14 18:26:35;;;;;;;44.42;22.80;;;;;;;;;;4908065;29;20028;-91
2022/01/14 18:29:02;;;;;;;47.15;23.48;;;;;;;;;;4907799;29;20063;-92
2022/01/14 18:31:28;;;;;;;62.78;28.48;;;;;;;;;;4924519;29;20036;-91
2022/01/14 18:33:55;;;;;;;67.18;28.60;;;;;;;;;;4907704;29;20036;-91
2022/01/14 18:36:21;;;;;;;65.18;26.73;;;;;;;;;;4907707;29;20052;-92
2022/01/14 18:38:47;;;;;;;86.07;35.50;;;;;;;;;;4907549;29;20020;-91
2022/01/14 18:41:14;;;;;;;123.88;54.75;;;;;;;;;;4907584;29;20434;-91
2022/01/14 18:43:46;;;;;;;226.23;81.45;;;;;;;;;;4907733;29;20036;-91
2022/01/14 18:46:13;;;;;;;395.35;134.20;;;;;;;;;;4907632;29;20135;-92
2022/01/14 18:48:39;;;;;;;444.92;148.80;;;;;;;;;;4907556;29;20036;-90
2022/01/14 18:51:05;;;;;;;380.80;119.18;;;;;;;;;;4907327;29;20168;-92
2022/01/14 18:53:31;;;;;;;395.63;127.80;;;;;;;;;;4923969;29;20029;-91
2022/01/14 18:55:57;;;;;;;252.32;83.75;;;;;;;;;;4907039;29;20036;-92
2022/01/14 18:58:24;;;;;;;176.43;63.42;;;;;;;;;;4923182;29;20081;-91
2022/01/14 19:00:51;;;;;;;103.13;45.97;;;;;;;;;;4923344;29;20043;-92
2022/01/14 19:03:17;;;;;;;58.65;27.27;;;;;;;;;;4923437;29;20047;-92
2022/01/14 19:05:43;;;;;;;66.75;32.00;;;;;;;;;;4907339;29;20415;-93
2022/01/14 19:08:09;;;;;;;106.32;39.30;;;;;;;;;;4923923;29;20127;-91
2022/01/14 19:10:35;;;;;;;58.05;24.02;;;;;;;;;;4924132;29;20064;-92
2022/01/14 19:13:01;;;;;;;42.78;20.25;;;;;;;;;;4923933;29;20028;-92
2022/01/14 19:15:27;;;;;;;62.28;24.25;;;;;;;;;;4923992;29;20396;-91
2022/01/14 19:17:54;;;;;;;66.38;26.08;;;;;;;;;;4923798;29;20024;-92
2022/01/14 19:20:21;;;;;;;54.67;25.50;;;;;;;;;;4906526;29;20123;-92
2022/01/14 19:22:47;;;;;;;50.30;21.70;;;;;;;;;;4923415;29;20028;-91
2022/01/14 19:25:13;;;;;;;51.85;23.55;;;;;;;;;;4923506;29;20068;-92
2022/01/14 19:27:40;;;;;;;50.90;25.45;;;;;;;;;;4906824;29;20047;-91
2022/01/14 19:30:07;;;;;;;50.17;25.58;;;;;;;;;;4923304;29;20028;-92
2022/01/14 19:32:33;;;;;;;45.53;24.35;;;;;;;;;;4906497;29;20339;-91
2022/01/14 19:35:00;;;;;;;51.25;26.05;;;;;;;;;;4906691;29;20501;-91
2022/01/14 19:37:26;;;;;;;49.35;23.27;;;;;;;;;;4923232;29;20028;-91
2022/01/14 19:39:52;;;;;;;42.25;20.48;;;;;;;;;;4923318;29;20035;-92
2022/01/14 19:42:19;;;;;;;68.40;25.92;;;;;;;;;;4906526;29;20032;-92
2022/01/14 19:44:46;;;;;;;109.10;35.53;;;;;;;;;;4906550;29;20066;-92
2022/01/14 19:47:12;;;;;;;50.03;22.80;;;;;;;;;;4923024;29;20035;-91
2022/01/14 19:49:38;;;;;;;40.83;20.52;;;;;;;;;;4923063;29;20051;-92
2022/01/14 19:52:05;;;;;;;53.50;27.13;;;;;;;;;;4922688;29;20024;-91
2022/01/14 19:54:31;;;;;;;38.70;20.80;;;;;;;;;;4922833;29;20031;-91
2022/01/14 19:56:57;;;;;;;49.55;25.17;;;;;;;;;;4922930;29;20323;-91
2022/01/14 19:59:23;;;;;;;45.92;24.23;;;;;;;;;;4906497;29;20123;-91
2022/01/14 20:01:49;;;;;;;47.38;24.50;;;;;;;;;;4922347;29;20410;-93
2022/01/14 20:04:16;;;;;;;33.20;17.45;;;;;;;;;;4906030;29;20088;-93
2022/01/14 20:06:42;;;;;;;42.92;21.02;;;;;;;;;;4922869;29;20054;-92
2022/01/14 20:09:08;;;;;;;53.13;20.50;;;;;;;;;;4906094;29;20031;-92
2022/01/14 20:11:34;;;;;;;48.25;18.52;;;;;;;;;;4905868;29;20056;-91
2022/01/14 20:14:01;;;;;;;47.40;20.25;;;;;;;;;;4922371;29;20431;-91
2022/01/14 20:16:27;;;;;;;41.28;18.75;;;;;;;;;;4905480;29;20032;-92
2022/01/14 20:18:54;;;;;;;39.08;18.10;;;;;;;;;;4922536;29;20100;-92
2022/01/14 20:21:21;;;;;;;41.05;18.50;;;;;;;;;;4922253;29;20052;-92
2022/01/14 20:23:47;;;;;;;29.30;16.17;;;;;;;;;;4905657;29;20123;-91
2022/01/14 20:26:13;;;;;;;33.13;17.67;;;;;;;;;;4922229;29;20036;-91
2022/01/14 20:28:39;;;;;;;31.85;16.05;;;;;;;;;;4905837;29;20062;-91
2022/01/14 20:31:05;;;;;;;34.97;16.05;;;;;;;;;;4922268;29;20017;-92
2022/01/14 20:33:32;;;;;;;25.48;13.45;;;;;;;;;;4905709;29;20028;-91
2022/01/14 20:35:59;;;;;;;22.88;11.10;;;;;;;;;;4922251;29;20101;-90
2022/01/14 20:38:25;;;;;;;30.98;14.02;;;;;;;;;;4922412;29;20155;-91
2022/01/14 20:40:52;;;;;;;32.30;14.38;;;;;;;;;;4922113;29;20039;-91
2022/01/14 20:43:21;;;;;;;22.90;11.90;;;;;;;;;;4905255;29;20131;-91
2022/01/14 20:45:48;;;;;;;31.92;15.63;;;;;;;;;;4921914;29;20039;-91
2022/01/14 20:48:14;;;;;;;38.05;18.65;;;;;;;;;;4921903;29;20028;-91
2022/01/14 20:50:40;;;;;;;45.60;18.70;;;;;;;;;;4921869;29;20024;-92
2022/01/14 20:53:08;;;;;;;82.72;28.67;;;;;;;;;;4921937;29;20119;-92
2022/01/14 20:55:35;;;;;;;48.70;18.95;;;;;;;;;;4910939;29;20036;-91
2022/01/14 20:58:01;;;;;;;47.05;19.70;;;;;;;;;;4902702;29;20032;-92
2022/01/14 21:00:28;;;;;;;44.28;18.75;;;;;;;;;;4886286;29;20423;-91
2022/01/14 21:02:54;;;;;;;45.78;20.05;;;;;;;;;;4902773;29;20096;-91
2022/01/14 21:05:21;;;;;;;45.95;20.05;;;;;;;;;;4902836;29;20032;-92
2022/01/14 21:07:59;;;;;;;53.70;21.50;;;;;;;;;;4902691;29;20036;-91
2022/01/14 21:10:25;;;;;;;49.45;22.70;;;;;;;;;;4902831;29;20036;-92
2022/01/14 21:12:51;;;;;;;56.20;26.48;;;;;;;;;;4902423;29;20024;-91
2022/01/14 21:15:17;;;;;;;48.10;23.35;;;;;;;;;;4913981;29;20028;-92
2022/01/14 21:17:44;;;;;;;48.92;24.20;;;;;;;;;;4921778;29;20032;-91
2022/01/14 21:20:12;;;;;;;33.58;19.50;;;;;;;;;;4904846;29;20031;-91
2022/01/14 21:22:38;;;;;;;38.05;21.30;;;;;;;;;;4904218;29;20028;-91
2022/01/14 21:25:05;;;;;;;36.50;21.10;;;;;;;;;;4904109;29;20047;-91
2022/01/14 21:27:31;;;;;;;47.67;21.08;;;;;;;;;;4904595;29;20035;-92
2022/01/14 21:30:01;;;;;;;88.63;28.30;;;;;;;;;;4921301;29;20021;-91
2022/01/14 21:32:27;;;;;;;82.75;25.08;;;;;;;;;;4921722;29;20403;-93
2022/01/14 21:34:53;;;;;;;72.15;23.17;;;;;;;;;;4921444;29;20061;-91
2022/01/14 21:37:38;;;;;;;87.53;25.73;;;;;;;;;;4903746;29;20087;-92
2022/01/14 21:40:05;;;;;;;52.35;23.73;;;;;;;;;;4920840;29;20059;-93
2022/01/14 21:42:31;;;;;;;32.17;16.85;;;;;;;;;;4904539;29;20028;-91
2022/01/14 21:44:57;;;;;;;33.25;17.58;;;;;;;;;;4904101;29;20415;-91
2022/01/14 21:47:24;;;;;;;33.45;18.55;;;;;;;;;;4904445;29;20043;-92
2022/01/14 21:49:50;;;;;;;28.17;15.38;;;;;;;;;;4921062;29;20016;-91
2022/01/14 21:52:16;;;;;;;29.35;15.68;;;;;;;;;;4920885;29;20052;-92
2022/01/14 21:54:43;;;;;;;24.10;14.30;;;;;;;;;;4921036;29;20407;-92
2022/01/14 21:57:09;;;;;;;27.88;15.43;;;;;;;;;;4921174;29;20039;-92
2022/01/14 21:59:35;;;;;;;25.73;14.68;;;;;;;;;;4904500;29;20020;-92
2022/01/14 22:02:01;;;;;;;27.75;15.65;;;;;;;;;;4920849;29;20044;-93
2022/01/14 22:04:27;;;;;;;21.95;12.85;;;;;;;;;;4921267;29;20032;-92
2022/01/14 22:06:55;;;;;;;20.58;11.45;;;;;;;;;;4920858;29;20124;-92
2022/01/14 22:09:21;;;;;;;20.02;11.18;;;;;;;;;;4921070;29;20023;-91
2022/01/14 22:11:50;;;;;;;20.05;11.40;;;;;;;;;;4903902;29;20066;-92
2022/01/14 22:14:24;;;;;;;20.45;11.93;;;;;;;;;;4904132;29;20323;-91
2022/01/14 22:16:50;;;;;;;19.42;12.25;;;;;;;;;;4920972;29;20112;-93
2022/01/14 22:19:16;;;;;;;19.83;11.30;;;;;;;;;;4903520;29;20044;-91
2022/01/14 22:21:42;;;;;;;18.48;10.95;;;;;;;;;;4903744;29;20115;-92
2022/01/14 22:24:09;;;;;;;20.45;10.90;;;;;;;;;;4920851;29;20031;-92
2022/01/14 22:26:35;;;;;;;21.55;11.32;;;;;;;;;;4904155;29;20028;-92
2022/01/14 22:29:01;;;;;;;23.02;12.07;;;;;;;;;;4903805;29;20040;-92
2022/01/14 22:31:27;;;;;;;24.67;12.18;;;;;;;;;;4904231;29;20472;-93
2022/01/14 22:33:53;;;;;;;21.60;11.77;;;;;;;;;;4922176;29;20031;-93
2022/01/14 22:36:19;;;;;;;20.83;11.45;;;;;;;;;;4907169;29;20067;-94
2022/01/14 22:38:45;;;;;;;25.85;13.43;;;;;;;;;;4907135;29;20474;-94
2022/01/14 22:41:12;;;;;;;24.70;12.75;;;;;;;;;;4923971;29;20356;-93
2022/01/14 22:43:39;;;;;;;26.90;14.23;;;;;;;;;;4924277;29;20327;-94
2022/01/14 22:46:05;;;;;;;24.42;12.45;;;;;;;;;;4907438;29;20036;-92
2022/01/14 22:48:32;;;;;;;24.40;13.07;;;;;;;;;;4907396;29;20331;-93
2022/01/14 22:50:58;;;;;;;21.73;13.20;;;;;;;;;;4923890;29;20028;-93
2022/01/14 22:53:24;;;;;;;22.65;12.30;;;;;;;;;;4924254;29;20028;-93
2022/01/14 22:55:52;;;;;;;24.40;12.38;;;;;;;;;;4907344;29;20028;-93
2022/01/14 22:58:19;;;;;;;25.70;13.85;;;;;;;;;;4924312;29;20051;-92
2022/01/14 23:00:45;;;;;;;25.75;12.23;;;;;;;;;;4924064;29;20467;-93
2022/01/14 23:03:12;;;;;;;21.25;11.05;;;;;;;;;;4923424;29;20062;-93
2022/01/14 23:05:38;;;;;;;20.42;10.85;;;;;;;;;;4924184;29;20315;-94
2022/01/14 23:08:07;;;;;;;17.58;9.75;;;;;;;;;;4921671;29;20115;-94
2022/01/14 23:10:33;;;;;;;20.60;10.48;;;;;;;;;;4888544;29;20055;-93
2022/01/14 23:13:00;;;;;;;18.00;9.90;;;;;;;;;;4904760;29;20032;-92
2022/01/14 23:15:26;;;;;;;19.10;10.38;;;;;;;;;;4904837;29;20033;-93
2022/01/14 23:17:53;;;;;;;17.40;9.40;;;;;;;;;;4904275;29;20032;-95
2022/01/14 23:20:20;;;;;;;15.90;9.57;;;;;;;;;;4905136;29;20043;-94
2022/01/14 23:22:46;;;;;;;17.80;9.57;;;;;;;;;;4904613;29;20029;-94
2022/01/14 23:25:14;;;;;;;16.13;9.43;;;;;;;;;;4904794;29;20036;-93
2022/01/14 23:27:40;;;;;;;19.08;9.95;;;;;;;;;;4904621;29;20391;-94
2022/01/14 23:30:07;;;;;;;16.02;9.32;;;;;;;;;;4888121;29;20092;-93
2022/01/14 23:32:33;;;;;;;17.52;9.98;;;;;;;;;;4888185;29;20343;-91
2022/01/14 23:35:00;;;;;;;17.67;9.55;;;;;;;;;;4904642;29;20349;-93
2022/01/14 23:37:26;;;;;;;18.98;10.50;;;;;;;;;;4904513;29;20033;-92
2022/01/14 23:39:52;;;;;;;20.92;9.90;;;;;;;;;;4887792;29;20064;-93
2022/01/14 23:42:18;;;;;;;17.63;10.07;;;;;;;;;;4904249;29;20080;-92
2022/01/14 23:44:57;;;;;;;15.35;8.75;;;;;;;;;;4903757;29;20076;-92
2022/01/14 23:47:38;;;;;;;16.05;8.95;;;;;;;;;;4887556;29;20432;-93
2022/01/14 23:50:05;;;;;;;13.57;8.55;;;;;;;;;;4904169;29;20111;-93
2022/01/14 23:52:34;;;;;;;16.45;8.90;;;;;;;;;;4887845;29;20375;-92
2022/01/14 23:55:00;;;;;;;13.32;8.25;;;;;;;;;;4903865;29;20036;-92
2022/01/14 23:57:26;;;;;;;16.90;9.18;;;;;;;;;;4903962;29;20028;-93
2022/01/14 23:59:52;;;;;;;16.20;9.48;;;;;;;;;;4887378;29;20112;-92
